Time;durP1;ratioP1;P1;durP2;ratioP2;P2;SDS_P1;SDS_P2;PMS_P1;PMS_P2;Temp;Humidity;BMP_temperature;BMP_pressure;BME280_temperature;BME280_humidity;BME280_pressure;Samples;Min_cycle;Max_cycle;Signal;HPM_P1;HPM_P2
2022/01/21 00:01:08;;;;;;;0.60;0.60;;;0.20;99.90;;;;;;5013412;28;20065;-78
2022/01/21 00:03:34;;;;;;;0.40;0.40;;;0.20;99.90;;;;;;5014325;28;20026;-78
2022/01/21 00:06:00;;;;;;;0.60;0.60;;;0.30;99.90;;;;;;5013010;28;20117;-77
2022/01/21 00:08:26;;;;;;;0.88;0.70;;;0.30;99.90;;;;;;4996713;28;20026;-77
2022/01/21 00:10:53;;;;;;;0.50;0.50;;;0.30;99.90;;;;;;5014362;28;20025;-78
2022/01/21 00:13:25;;;;;;;4.85;1.25;;;0.20;99.90;;;;;;5013049;28;20116;-78
2022/01/21 00:15:51;;;;;;;0.57;0.57;;;0.10;99.90;;;;;;5014335;28;20466;-78
2022/01/21 00:18:18;;;;;;;0.90;0.88;;;0.00;99.90;;;;;;5013239;28;20084;-78
2022/01/21 00:31:41;;;;;;;0.40;0.40;;;-0.10;99.90;;;;;;5013632;28;20032;-77
2022/01/21 00:34:07;;;;;;;0.50;0.50;;;-0.10;99.90;;;;;;5012672;28;20033;-77
2022/01/21 00:36:33;;;;;;;3.10;2.88;;;-0.10;99.90;;;;;;5013686;28;20026;-77
2022/01/21 00:38:59;;;;;;;0.40;0.40;;;0.00;99.90;;;;;;5012640;28;20021;-77
2022/01/21 00:41:29;;;;;;;0.32;0.32;;;0.00;99.90;;;;;;5013673;28;20383;-77
2022/01/21 00:43:55;;;;;;;2.70;1.38;;;0.00;99.90;;;;;;4996258;28;20030;-77
2022/01/21 00:46:21;;;;;;;1.33;1.15;;;-0.10;99.90;;;;;;5012399;28;20030;-77
2022/01/21 00:48:47;;;;;;;0.30;0.30;;;-0.20;99.90;;;;;;5012462;28;20501;-77
2022/01/21 00:51:13;;;;;;;0.90;0.90;;;-0.20;99.90;;;;;;5013560;28;20026;-77
2022/01/21 00:53:39;;;;;;;0.38;0.38;;;-0.20;99.90;;;;;;4995959;28;20065;-77
2022/01/21 00:56:05;;;;;;;0.40;0.40;;;-0.20;99.90;;;;;;5013136;28;20106;-77
2022/01/21 00:58:30;;;;;;;6.82;1.83;;;0.00;99.90;;;;;;5012155;28;20037;-77
2022/01/21 01:00:56;;;;;;;0.30;0.30;;;0.00;99.90;;;;;;5013492;28;20017;-77
2022/01/21 01:03:22;;;;;;;0.40;0.40;;;0.00;99.90;;;;;;5011964;28;20038;-78
2022/01/21 01:05:51;;;;;;;0.30;0.30;;;0.20;99.90;;;;;;5011955;28;20029;-78
2022/01/21 01:08:17;;;;;;;0.85;0.85;;;0.30;99.90;;;;;;5013157;28;20474;-77
2022/01/21 01:11:01;;;;;;;0.55;0.55;;;0.10;99.90;;;;;;5012028;28;20084;-77
2022/01/21 01:21:46;;;;;;;0.95;0.95;;;0.20;99.90;;;;;;5012946;28;20030;-76
2022/01/21 01:29:25;;;;;;;2.78;1.10;;;0.00;99.90;;;;;;5011721;28;20041;-76
2022/01/21 01:31:52;;;;;;;1.65;1.42;;;0.10;99.90;;;;;;5012462;28;20034;-76
2022/01/21 01:34:18;;;;;;;0.55;0.55;;;-0.10;99.90;;;;;;5012884;28;20080;-76
2022/01/21 01:36:47;;;;;;;1.05;1.05;;;-0.20;99.90;;;;;;5012650;28;20094;-76
2022/01/21 01:39:28;;;;;;;6.30;1.60;;;0.00;99.90;;;;;;5012779;28;20071;-77
2022/01/21 01:42:16;;;;;;;1.15;1.05;;;0.00;99.90;;;;;;4995072;28;20494;-76
2022/01/21 01:50:30;;;;;;;0.40;0.40;;;0.00;99.90;;;;;;5012582;28;20026;-77
2022/01/21 01:52:55;;;;;;;0.68;0.68;;;0.10;99.90;;;;;;5012482;28;20038;-76
2022/01/21 01:55:22;;;;;;;4.35;1.83;;;0.10;99.90;;;;;;5011219;28;20096;-76
2022/01/21 01:57:48;;;;;;;3.17;0.93;;;0.10;99.90;;;;;;5012238;28;20076;-77
2022/01/21 02:00:14;;;;;;;0.60;0.60;;;0.30;99.90;;;;;;5012282;28;20022;-76
2022/01/21 02:02:40;;;;;;;0.40;0.40;;;0.10;99.90;;;;;;5010955;28;20049;-76
2022/01/21 02:05:06;;;;;;;0.82;0.82;;;0.10;99.90;;;;;;5011305;28;20411;-76
2022/01/21 02:07:33;;;;;;;0.90;0.90;;;0.00;99.90;;;;;;5011937;28;20478;-76
2022/01/21 02:09:58;;;;;;;3.70;0.85;;;0.10;99.90;;;;;;5011096;28;20037;-76
2022/01/21 02:12:25;;;;;;;0.35;0.35;;;0.20;99.90;;;;;;5010879;28;20034;-76
2022/01/21 02:14:53;;;;;;;0.60;0.60;;;0.30;99.90;;;;;;5012317;28;20026;-76
2022/01/21 02:22:42;;;;;;;0.40;0.40;;;0.30;99.90;;;;;;5012207;28;20548;-76
2022/01/21 02:25:26;;;;;;;0.95;0.95;;;0.20;99.90;;;;;;5010877;28;20022;-76
2022/01/21 02:27:58;;;;;;;0.50;0.50;;;0.20;99.90;;;;;;5012147;28;20083;-78
2022/01/21 02:30:25;;;;;;;1.15;1.15;;;0.20;99.90;;;;;;5010841;28;20386;-77
2022/01/21 02:32:57;;;;;;;0.35;0.35;;;0.30;99.90;;;;;;5010303;28;20025;-76
2022/01/21 02:35:24;;;;;;;3.70;1.48;;;0.30;99.90;;;;;;5012076;28;20152;-77
2022/01/21 02:37:50;;;;;;;0.40;0.40;;;0.20;99.90;;;;;;5010660;28;20034;-76
2022/01/21 02:40:16;;;;;;;0.40;0.40;;;0.20;99.90;;;;;;5012034;28;20049;-76
2022/01/21 02:42:43;;;;;;;0.40;0.40;;;0.40;99.90;;;;;;5010836;28;20022;-77
2022/01/21 02:45:11;;;;;;;2.25;2.03;;;0.40;99.90;;;;;;5010762;28;20022;-77
2022/01/21 02:47:37;;;;;;;0.30;0.30;;;0.30;99.90;;;;;;5010667;28;20066;-77
2022/01/21 02:50:04;;;;;;;0.73;0.68;;;0.20;99.90;;;;;;5010738;28;20048;-78
2022/01/21 02:52:39;;;;;;;0.60;0.60;;;0.40;99.90;;;;;;5011775;28;20037;-76
2022/01/21 02:55:07;;;;;;;0.45;0.45;;;0.60;99.90;;;;;;5012292;28;20022;-76
2022/01/21 02:57:32;;;;;;;1.10;0.43;;;0.60;99.90;;;;;;5010494;28;20068;-76
2022/01/21 02:59:58;;;;;;;0.40;0.40;;;0.40;99.90;;;;;;5010683;28;20041;-76
2022/01/21 03:02:24;;;;;;;0.68;0.68;;;0.30;99.90;;;;;;5010276;28;20454;-76
2022/01/21 03:05:02;;;;;;;0.40;0.40;;;0.20;99.90;;;;;;5011906;28;20034;-77
2022/01/21 03:07:28;;;;;;;0.40;0.40;;;0.40;99.90;;;;;;5011969;28;20382;-77
2022/01/21 03:09:53;;;;;;;0.82;0.82;;;0.50;99.90;;;;;;4994255;28;20026;-75
2022/01/21 03:12:21;;;;;;;0.40;0.40;;;0.40;99.90;;;;;;5010409;28;20030;-77
2022/01/21 03:14:47;;;;;;;2.08;1.50;;;0.30;99.90;;;;;;4994253;28;20053;-76
2022/01/21 03:17:14;;;;;;;0.40;0.40;;;0.30;99.90;;;;;;5010397;28;20022;-76
2022/01/21 03:19:39;;;;;;;1.08;1.00;;;0.30;99.90;;;;;;5014832;28;20028;-77
2022/01/21 03:22:05;;;;;;;0.40;0.40;;;0.40;99.90;;;;;;5015333;28;20172;-75
2022/01/21 03:24:31;;;;;;;0.47;0.47;;;0.50;99.90;;;;;;5014400;28;20041;-76
2022/01/21 03:26:57;;;;;;;0.40;0.40;;;0.50;99.90;;;;;;5013861;28;20115;-76
2022/01/21 03:29:23;;;;;;;0.75;0.75;;;0.60;99.90;;;;;;5013951;28;20054;-76
2022/01/21 03:31:49;;;;;;;0.90;0.90;;;0.70;99.90;;;;;;4997326;28;20549;-76
2022/01/21 03:34:15;;;;;;;3.03;1.50;;;0.70;99.90;;;;;;5014009;28;20404;-76
2022/01/21 03:36:41;;;;;;;0.50;0.50;;;0.50;99.90;;;;;;4997349;28;20048;-76
2022/01/21 03:39:07;;;;;;;1.25;1.15;;;0.40;99.90;;;;;;4997259;28;20018;-76
2022/01/21 03:41:33;;;;;;;0.57;0.57;;;0.30;99.90;;;;;;5014903;28;20029;-76
2022/01/21 03:43:59;;;;;;;0.40;0.40;;;0.30;99.90;;;;;;5014981;28;20110;-77
2022/01/21 03:46:24;;;;;;;0.40;0.40;;;0.30;99.90;;;;;;5014797;28;20030;-76
2022/01/21 03:48:51;;;;;;;1.10;0.60;;;0.30;99.90;;;;;;5014770;28;20441;-77
2022/01/21 03:51:18;;;;;;;3.72;2.00;;;0.60;99.90;;;;;;5013356;28;20026;-75
2022/01/21 03:53:46;;;;;;;0.38;0.38;;;0.40;99.90;;;;;;5013339;28;20026;-74
2022/01/21 03:56:13;;;;;;;1.05;0.98;;;0.40;99.90;;;;;;5014536;28;20022;-74
2022/01/21 03:58:39;;;;;;;1.60;1.50;;;0.40;99.90;;;;;;5014551;28;20532;-75
2022/01/21 04:01:05;;;;;;;0.40;0.40;;;0.50;99.90;;;;;;5013344;28;20022;-74
2022/01/21 04:03:30;;;;;;;0.30;0.30;;;0.60;99.90;;;;;;4996800;28;20120;-75
2022/01/21 04:05:56;;;;;;;0.30;0.30;;;0.80;99.90;;;;;;5014357;28;20022;-75
2022/01/21 04:08:22;;;;;;;0.60;0.60;;;0.90;99.90;;;;;;4996714;28;20026;-74
2022/01/21 04:10:48;;;;;;;0.40;0.40;;;0.90;99.90;;;;;;5013271;28;20037;-75
2022/01/21 04:13:18;;;;;;;1.38;1.27;;;0.60;99.90;;;;;;5012882;28;20026;-74
2022/01/21 04:15:49;;;;;;;0.77;0.77;;;0.60;99.90;;;;;;5013139;28;20033;-74
2022/01/21 04:18:15;;;;;;;0.35;0.35;;;0.60;99.90;;;;;;5014355;28;20017;-75
2022/01/21 04:20:43;;;;;;;0.30;0.30;;;0.80;99.90;;;;;;5012762;28;20036;-75
2022/01/21 04:23:10;;;;;;;0.30;0.30;;;0.80;99.90;;;;;;5014112;28;20415;-75
2022/01/21 04:25:37;;;;;;;0.80;0.80;;;0.80;99.90;;;;;;4996406;28;20030;-75
2022/01/21 04:28:02;;;;;;;0.30;0.30;;;0.90;99.90;;;;;;5014015;28;20454;-75
2022/01/21 04:30:28;;;;;;;0.40;0.40;;;0.70;99.90;;;;;;5012160;28;20109;-75
2022/01/21 04:32:54;;;;;;;1.00;0.95;;;0.60;99.90;;;;;;4995838;28;20025;-74
2022/01/21 04:35:20;;;;;;;0.30;0.30;;;0.30;99.90;;;;;;5012726;28;20032;-75
2022/01/21 04:37:53;;;;;;;0.40;0.40;;;0.40;99.90;;;;;;5012588;28;20371;-75
2022/01/21 04:40:22;;;;;;;0.50;0.50;;;0.30;99.90;;;;;;5013946;28;20076;-74
2022/01/21 04:48:16;;;;;;;3.25;1.67;;;0.30;99.90;;;;;;5015657;28;20493;-79
2022/01/21 04:50:53;;;;;;;0.30;0.30;;;0.20;99.90;;;;;;4998054;28;20025;-79
2022/01/21 04:53:20;;;;;;;3.92;3.65;;;0.00;99.90;;;;;;4982394;28;20056;-79
2022/01/21 04:55:47;;;;;;;0.30;0.30;;;0.00;99.90;;;;;;4982123;28;20555;-79
2022/01/21 04:58:13;;;;;;;0.38;0.38;;;0.00;99.90;;;;;;5015968;28;20026;-79
2022/01/21 05:00:38;;;;;;;0.32;0.32;;;0.10;99.90;;;;;;5015790;28;20022;-79
2022/01/21 05:03:04;;;;;;;0.40;0.40;;;0.30;99.90;;;;;;4998193;28;20033;-79
2022/01/21 05:05:30;;;;;;;0.40;0.40;;;0.50;99.90;;;;;;4997976;28;20033;-80
2022/01/21 05:08:00;;;;;;;0.35;0.35;;;0.50;99.90;;;;;;4998175;28;20034;-79
2022/01/21 05:10:27;;;;;;;0.40;0.40;;;0.60;99.90;;;;;;4997858;28;20032;-79
2022/01/21 05:12:54;;;;;;;0.40;0.40;;;0.50;99.90;;;;;;5015953;28;20377;-79
2022/01/21 05:15:31;;;;;;;0.43;0.43;;;0.50;99.90;;;;;;4997692;28;20018;-78
2022/01/21 05:17:56;;;;;;;0.85;0.47;;;0.40;99.90;;;;;;4997977;28;20097;-79
2022/01/21 05:20:22;;;;;;;0.47;0.47;;;0.40;99.90;;;;;;4981482;28;20116;-79
2022/01/21 05:22:48;;;;;;;1.48;1.38;;;0.40;99.90;;;;;;4981862;28;20048;-79
2022/01/21 05:25:18;;;;;;;0.73;0.73;;;0.20;99.90;;;;;;4997551;28;20026;-78
2022/01/21 05:27:46;;;;;;;1.58;1.00;;;0.20;99.90;;;;;;5015505;28;20112;-79
2022/01/21 05:30:13;;;;;;;0.43;0.43;;;0.20;99.90;;;;;;4997362;28;20064;-79
2022/01/21 05:32:39;;;;;;;0.40;0.40;;;0.30;99.90;;;;;;5015603;28;20030;-79
2022/01/21 05:35:05;;;;;;;0.60;0.60;;;0.30;99.90;;;;;;4997446;28;20025;-79
2022/01/21 05:37:30;;;;;;;0.40;0.40;;;0.20;99.90;;;;;;4981147;28;20022;-79
2022/01/21 05:39:56;;;;;;;0.40;0.40;;;0.30;99.90;;;;;;4997660;28;20026;-79
2022/01/21 05:42:23;;;;;;;1.23;1.13;;;0.30;99.90;;;;;;4980452;28;20026;-79
2022/01/21 05:47:14;;;;;;;0.40;0.40;;;0.40;99.90;;;;;;4997354;28;20245;-79
2022/01/21 05:49:40;;;;;;;0.30;0.30;;;0.30;99.90;;;;;;4981304;28;20478;-79
2022/01/21 05:52:10;;;;;;;0.40;0.40;;;0.20;99.90;;;;;;5014454;28;20064;-79
2022/01/21 05:54:36;;;;;;;0.75;0.75;;;0.20;99.90;;;;;;4981045;28;20114;-79
2022/01/21 05:57:05;;;;;;;0.40;0.40;;;0.20;99.90;;;;;;4997152;28;20385;-78
2022/01/21 05:59:32;;;;;;;0.98;0.80;;;0.30;99.90;;;;;;4997314;28;20018;-79
2022/01/21 06:01:57;;;;;;;0.40;0.40;;;0.50;99.90;;;;;;5014748;28;20025;-79
2022/01/21 06:04:23;;;;;;;0.77;0.77;;;0.60;99.90;;;;;;4997386;28;20029;-79
2022/01/21 06:06:49;;;;;;;0.35;0.35;;;0.60;99.90;;;;;;4996748;28;20025;-79
2022/01/21 06:09:15;;;;;;;0.38;0.38;;;0.40;99.90;;;;;;4996951;28;20192;-79
2022/01/21 06:11:40;;;;;;;0.52;0.52;;;0.50;99.90;;;;;;5014380;28;20032;-79
2022/01/21 06:14:06;;;;;;;0.40;0.40;;;0.60;99.90;;;;;;4997282;28;20029;-79
2022/01/21 06:16:34;;;;;;;0.38;0.38;;;0.20;99.90;;;;;;4997141;28;20026;-79
2022/01/21 06:19:01;;;;;;;0.40;0.40;;;0.20;99.90;;;;;;4997241;28;20445;-79
2022/01/21 06:21:27;;;;;;;4.75;1.35;;;0.00;99.90;;;;;;4996637;28;20018;-79
2022/01/21 06:23:52;;;;;;;0.30;0.30;;;-0.10;99.90;;;;;;4997157;28;20551;-79
2022/01/21 06:26:18;;;;;;;0.57;0.57;;;0.10;99.90;;;;;;4981967;28;20075;-79
2022/01/21 06:28:44;;;;;;;1.08;0.93;;;0.20;99.90;;;;;;5016395;28;20025;-79
2022/01/21 06:31:10;;;;;;;0.40;0.40;;;0.10;99.90;;;;;;4985729;28;20044;-79
2022/01/21 06:33:35;;;;;;;0.70;0.70;;;0.20;99.90;;;;;;5015491;28;20037;-79
2022/01/21 06:36:01;;;;;;;2.05;0.77;;;0.30;99.90;;;;;;5015766;28;20049;-79
2022/01/21 06:38:27;;;;;;;0.50;0.50;;;0.40;99.90;;;;;;5012790;28;20049;-78
2022/01/21 06:40:54;;;;;;;0.40;0.40;;;0.10;99.90;;;;;;5033782;28;20045;-79
2022/01/21 06:43:19;;;;;;;0.50;0.50;;;0.20;99.90;;;;;;5000691;28;20528;-79
2022/01/21 06:45:47;;;;;;;0.40;0.40;;;0.30;99.90;;;;;;4999614;28;20146;-79
2022/01/21 06:48:13;;;;;;;0.85;0.55;;;0.10;99.90;;;;;;5001839;28;20018;-79
2022/01/21 06:50:41;;;;;;;0.55;0.55;;;0.20;99.90;;;;;;4996208;28;20030;-79
2022/01/21 06:53:07;;;;;;;0.45;0.45;;;0.20;99.90;;;;;;4996846;28;20307;-78
2022/01/21 06:55:33;;;;;;;0.38;0.38;;;0.20;99.90;;;;;;4983725;28;20022;-79
2022/01/21 06:57:59;;;;;;;2.85;1.42;;;0.10;99.90;;;;;;5001045;28;20569;-78
2022/01/21 07:00:25;;;;;;;1.05;1.05;;;0.00;99.90;;;;;;4983928;28;20302;-79
2022/01/21 07:02:52;;;;;;;0.75;0.75;;;-0.10;99.90;;;;;;5000234;28;20025;-79
2022/01/21 07:05:20;;;;;;;5.78;0.98;;;-0.20;99.90;;;;;;5015872;28;20393;-79
2022/01/21 07:07:46;;;;;;;0.30;0.30;;;-0.10;99.90;;;;;;5012866;28;20026;-79
2022/01/21 07:10:14;;;;;;;0.45;0.45;;;0.00;99.90;;;;;;4981620;28;20022;-79
2022/01/21 07:12:41;;;;;;;2.17;0.60;;;0.20;99.90;;;;;;4998613;28;20025;-79
2022/01/21 07:15:09;;;;;;;0.30;0.30;;;0.30;99.90;;;;;;4998364;28;20083;-78
2022/01/21 07:17:35;;;;;;;0.40;0.40;;;0.30;99.90;;;;;;5016308;28;20025;-77
2022/01/21 07:20:02;;;;;;;0.50;0.50;;;0.30;99.90;;;;;;5016607;28;20113;-78
2022/01/21 07:22:28;;;;;;;1.17;1.10;;;0.60;99.90;;;;;;4983253;28;20018;-78
2022/01/21 07:24:54;;;;;;;0.40;0.40;;;0.50;99.90;;;;;;5016456;28;20036;-78
2022/01/21 07:27:19;;;;;;;0.40;0.40;;;0.20;99.90;;;;;;4983625;28;20057;-78
2022/01/21 07:29:45;;;;;;;0.77;0.77;;;0.00;99.90;;;;;;4996338;28;20396;-78
2022/01/21 07:32:11;;;;;;;0.30;0.30;;;0.00;99.90;;;;;;5036222;28;20025;-78
2022/01/21 07:34:37;;;;;;;0.32;0.32;;;0.10;99.90;;;;;;5002696;28;20116;-78
2022/01/21 07:37:03;;;;;;;0.40;0.40;;;0.10;99.90;;;;;;4997581;28;20036;-78
2022/01/21 07:39:29;;;;;;;0.50;0.50;;;0.20;99.90;;;;;;5016382;28;20022;-78
2022/01/21 07:41:55;;;;;;;0.40;0.40;;;0.30;99.90;;;;;;4998631;28;20493;-78
2022/01/21 07:44:21;;;;;;;20.75;17.75;;;0.30;99.90;;;;;;5015433;28;20021;-77
2022/01/21 07:46:47;;;;;;;0.30;0.30;;;0.50;99.90;;;;;;4998813;28;20033;-78
2022/01/21 07:49:13;;;;;;;0.60;0.60;;;0.40;99.90;;;;;;4998363;28;20091;-78
2022/01/21 07:51:40;;;;;;;1.10;0.45;;;0.30;99.90;;;;;;4998369;28;20505;-78
2022/01/21 07:54:06;;;;;;;0.50;0.50;;;0.30;99.90;;;;;;4998533;28;20025;-79
2022/01/21 07:56:33;;;;;;;0.30;0.30;;;0.00;99.90;;;;;;4998519;28;20029;-78
2022/01/21 07:59:00;;;;;;;0.45;0.45;;;0.00;99.90;;;;;;4979816;28;20022;-79
2022/01/21 08:01:26;;;;;;;0.40;0.40;;;-0.10;99.90;;;;;;5016065;28;20030;-79
2022/01/21 08:03:52;;;;;;;0.50;0.50;;;-0.10;99.90;;;;;;4998211;28;20085;-78
2022/01/21 08:06:18;;;;;;;0.40;0.40;;;0.00;99.90;;;;;;5010372;28;20084;-79
2022/01/21 08:08:44;;;;;;;0.30;0.30;;;0.10;99.90;;;;;;4999488;28;20029;-79
2022/01/21 08:11:10;;;;;;;0.30;0.30;;;0.20;99.90;;;;;;4976525;28;20076;-79
2022/01/21 08:13:35;;;;;;;0.30;0.30;;;0.40;99.90;;;;;;4984796;28;20036;-79
2022/01/21 08:16:01;;;;;;;0.30;0.30;;;0.50;99.90;;;;;;4997291;28;20049;-79
2022/01/21 08:18:27;;;;;;;0.40;0.40;;;0.50;99.90;;;;;;4982413;28;20025;-78
2022/01/21 08:20:53;;;;;;;0.50;0.50;;;0.30;99.90;;;;;;4996725;28;20076;-79
2022/01/21 08:23:19;;;;;;;1.67;0.98;;;0.30;99.90;;;;;;4998726;28;20045;-78
2022/01/21 08:25:45;;;;;;;1.45;1.25;;;0.20;99.90;;;;;;4980349;28;20041;-78
2022/01/21 08:28:11;;;;;;;0.40;0.40;;;0.00;99.90;;;;;;5005989;28;20541;-78
2022/01/21 08:30:38;;;;;;;0.40;0.40;;;0.00;99.90;;;;;;5015204;28;20034;-78
2022/01/21 08:33:04;;;;;;;13.10;2.63;;;0.00;99.90;;;;;;4990664;28;20037;-78
2022/01/21 08:35:31;;;;;;;0.50;0.50;;;0.00;99.90;;;;;;4996797;28;20029;-79
2022/01/21 08:37:58;;;;;;;0.68;0.68;;;0.00;99.90;;;;;;4999517;28;20033;-78
2022/01/21 08:40:25;;;;;;;2.28;0.85;;;0.00;99.90;;;;;;4996796;28;20032;-79
2022/01/21 08:42:51;;;;;;;0.30;0.30;;;0.10;99.90;;;;;;5013621;28;20481;-79
2022/01/21 08:45:19;;;;;;;0.30;0.30;;;0.40;99.90;;;;;;5014331;28;20462;-78
2022/01/21 08:47:45;;;;;;;1.75;0.57;;;0.50;99.90;;;;;;4985439;28;20624;-78
2022/01/21 08:50:14;;;;;;;6.65;1.58;;;0.30;99.90;;;;;;5013874;28;20030;-79
2022/01/21 08:52:43;;;;;;;2.47;1.45;;;0.20;99.90;;;;;;4984389;28;20036;-79
2022/01/21 08:55:14;;;;;;;0.30;0.30;;;0.10;99.90;;;;;;4997025;28;20022;-79
2022/01/21 08:57:43;;;;;;;0.30;0.30;;;0.20;99.90;;;;;;5013554;28;20024;-78
2022/01/21 09:00:20;;;;;;;0.40;0.40;;;0.20;99.90;;;;;;4996430;28;20032;-79
2022/01/21 09:02:47;;;;;;;1.55;1.52;;;0.30;99.90;;;;;;4996621;28;20034;-78
2022/01/21 09:05:13;;;;;;;1.08;0.95;;;0.40;99.90;;;;;;4996507;28;20922;-78
2022/01/21 09:07:39;;;;;;;0.40;0.40;;;0.60;99.90;;;;;;4998401;28;20030;-79
2022/01/21 09:10:07;;;;;;;0.82;0.82;;;0.60;99.90;;;;;;4995950;28;20040;-78
2022/01/21 09:12:32;;;;;;;0.30;0.30;;;0.60;99.90;;;;;;4996549;28;20108;-79
2022/01/21 09:14:58;;;;;;;7.03;2.72;;;0.60;99.90;;;;;;4996382;28;20112;-78
2022/01/21 09:17:25;;;;;;;0.80;0.73;;;0.80;99.90;;;;;;4995200;28;20076;-78
2022/01/21 09:19:51;;;;;;;2.83;0.68;;;0.90;99.90;;;;;;5013203;28;20212;-78
2022/01/21 09:22:16;;;;;;;0.30;0.30;;;0.70;99.90;;;;;;4995419;28;20137;-79
2022/01/21 09:24:42;;;;;;;2.42;1.45;;;0.70;99.90;;;;;;4997033;28;20440;-78
2022/01/21 09:27:08;;;;;;;2.63;1.25;;;0.70;99.90;;;;;;5013011;28;20486;-79
2022/01/21 09:29:35;;;;;;;1.00;0.77;;;0.70;99.90;;;;;;4987554;28;20428;-78
2022/01/21 09:32:02;;;;;;;0.47;0.47;;;1.00;99.90;;;;;;4995974;28;20394;-78
2022/01/21 09:34:29;;;;;;;0.68;0.68;;;1.20;99.90;;;;;;5000978;28;20037;-80
2022/01/21 09:36:56;;;;;;;0.40;0.40;;;1.20;99.90;;;;;;4995615;28;20092;-80
2022/01/21 09:39:23;;;;;;;0.55;0.55;;;1.20;99.90;;;;;;5002593;28;20638;-81
2022/01/21 09:41:50;;;;;;;0.70;0.70;;;1.40;99.90;;;;;;4979708;28;20064;-80
2022/01/21 09:44:19;;;;;;;0.57;0.57;;;1.40;99.90;;;;;;4999428;28;20048;-80
2022/01/21 09:46:49;;;;;;;0.63;0.63;;;1.10;99.90;;;;;;4979130;28;20050;-81
2022/01/21 09:51:52;;;;;;;0.50;0.50;;;1.00;99.90;;;;;;4991775;28;20037;-79
2022/01/21 09:54:18;;;;;;;0.40;0.40;;;0.10;99.90;;;;;;5012228;28;20014;-79
2022/01/21 09:56:45;;;;;;;0.70;0.70;;;-0.10;99.90;;;;;;4994662;28;20071;-79
2022/01/21 09:59:16;;;;;;;0.40;0.40;;;-0.30;99.90;;;;;;4997460;28;20156;-79
2022/01/21 10:01:41;;;;;;;0.30;0.30;;;-0.50;99.90;;;;;;4994966;28;20022;-79
2022/01/21 10:04:07;;;;;;;0.40;0.40;;;-0.10;99.90;;;;;;5012528;28;20033;-79
2022/01/21 10:06:35;;;;;;;0.40;0.40;;;0.10;99.90;;;;;;4994833;28;20100;-79
2022/01/21 10:09:02;;;;;;;0.77;0.77;;;0.20;99.90;;;;;;4996022;28;20026;-79
2022/01/21 10:11:28;;;;;;;0.40;0.40;;;0.30;99.90;;;;;;5012216;28;20164;-79
2022/01/21 10:13:55;;;;;;;0.38;0.38;;;0.40;99.90;;;;;;4981387;28;20018;-79
2022/01/21 10:16:21;;;;;;;0.30;0.30;;;0.40;99.90;;;;;;4990222;28;20457;-79
2022/01/21 10:19:07;;;;;;;0.40;0.40;;;0.60;99.90;;;;;;4997379;28;20050;-79
2022/01/21 10:21:35;;;;;;;0.30;0.30;;;0.70;99.90;;;;;;4978369;28;20337;-79
2022/01/21 10:24:10;;;;;;;1.23;1.02;;;0.60;99.90;;;;;;4979873;28;20076;-78
2022/01/21 10:26:50;;;;;;;0.35;0.35;;;0.40;99.90;;;;;;4984647;28;20026;-78
2022/01/21 10:29:16;;;;;;;0.93;0.93;;;0.30;99.90;;;;;;5010957;28;20072;-79
2022/01/21 10:31:58;;;;;;;0.68;0.68;;;0.10;99.90;;;;;;4994477;28;20032;-78
2022/01/21 10:34:39;;;;;;;1.23;0.88;;;0.00;99.90;;;;;;5000436;28;20033;-79
2022/01/21 10:37:22;;;;;;;1.23;0.85;;;0.20;99.90;;;;;;5012638;28;20457;-78
2022/01/21 10:40:08;;;;;;;0.40;0.40;;;0.50;99.90;;;;;;4995515;28;20014;-79
2022/01/21 10:42:35;;;;;;;0.50;0.50;;;0.60;99.90;;;;;;4995032;28;20030;-80
2022/01/21 10:45:04;;;;;;;0.40;0.40;;;0.60;99.90;;;;;;4977044;28;20037;-79
2022/01/21 10:47:33;;;;;;;0.60;0.60;;;0.70;99.90;;;;;;5001709;28;20037;-79
2022/01/21 10:50:03;;;;;;;0.40;0.40;;;0.50;99.90;;;;;;5020131;28;20038;-79
2022/01/21 10:52:45;;;;;;;0.65;0.65;;;0.70;99.90;;;;;;5002626;28;20518;-80
2022/01/21 10:55:33;;;;;;;0.43;0.43;;;1.10;99.90;;;;;;4995268;28;20093;-79
2022/01/21 10:58:07;;;;;;;0.30;0.30;;;0.90;99.90;;;;;;4983006;28;20026;-79
2022/01/21 11:00:34;;;;;;;1.45;0.77;;;1.40;99.90;;;;;;4988694;28;20481;-79
2022/01/21 11:03:10;;;;;;;0.30;0.30;;;1.60;99.90;;;;;;4999672;28;20109;-78
2022/01/21 11:05:40;;;;;;;0.60;0.60;;;1.80;99.90;;;;;;5082411;22;20429;-74
2022/01/21 11:08:09;;;;;;;0.30;0.30;;;1.70;99.90;;;;;;5019411;28;20373;-74
2022/01/21 11:10:51;;;;;;;0.75;0.75;;;1.70;99.90;;;;;;5035508;28;20060;-74
2022/01/21 11:13:20;;;;;;;1.27;0.98;;;1.40;99.90;;;;;;5023694;28;20128;-74
2022/01/21 11:16:10;;;;;;;1.38;0.75;;;1.40;99.90;;;;;;5035145;28;20388;-74
2022/01/21 11:18:48;;;;;;;0.40;0.40;;;1.40;99.90;;;;;;5031143;28;20037;-74
2022/01/21 11:21:14;;;;;;;1.50;1.40;;;1.10;99.90;;;;;;5033721;28;20021;-74
2022/01/21 11:23:41;;;;;;;0.50;0.50;;;0.80;99.90;;;;;;5041666;28;20100;-74
2022/01/21 11:26:12;;;;;;;1.13;1.02;;;0.60;99.90;;;;;;5050269;28;20021;-74
2022/01/21 11:28:45;;;;;;;2.22;1.50;;;0.90;99.90;;;;;;5050497;28;20029;-73
2022/01/21 11:31:13;;;;;;;0.30;0.30;;;0.50;99.90;;;;;;5026575;28;20033;-74
2022/01/21 11:33:39;;;;;;;0.47;0.47;;;0.70;99.90;;;;;;5050338;28;20021;-74
2022/01/21 11:36:06;;;;;;;1.42;1.23;;;0.80;99.90;;;;;;5037385;28;20022;-74
2022/01/21 11:38:37;;;;;;;0.35;0.35;;;0.80;99.90;;;;;;5047016;28;20017;-74
2022/01/21 11:41:06;;;;;;;0.43;0.43;;;0.80;99.90;;;;;;5052410;28;20096;-74
2022/01/21 11:43:34;;;;;;;2.17;1.05;;;0.90;99.90;;;;;;5049476;28;20056;-73
2022/01/21 11:48:50;;;;;;;0.77;0.77;;;0.80;99.90;;;;;;5053946;28;20037;-74
2022/01/21 11:51:30;;;;;;;0.40;0.40;;;0.70;99.90;;;;;;5043775;28;20057;-74
2022/01/21 11:54:03;;;;;;;4.50;1.50;;;0.90;99.90;;;;;;5052112;28;20480;-74
2022/01/21 11:56:30;;;;;;;5.05;1.50;;;0.80;99.90;;;;;;5053519;28;20100;-74
2022/01/21 11:59:15;;;;;;;0.40;0.40;;;0.70;99.90;;;;;;5043634;28;20031;-73
2022/01/21 12:01:47;;;;;;;0.40;0.40;;;0.90;99.90;;;;;;5051968;28;20021;-74
2022/01/21 12:04:43;;;;;;;0.90;0.55;;;0.90;99.90;;;;;;5053538;28;20140;-74
2022/01/21 12:07:40;;;;;;;1.23;0.85;;;0.80;99.90;;;;;;5050793;28;20028;-74
2022/01/21 12:10:14;;;;;;;3.85;1.65;;;0.70;99.90;;;;;;5027748;28;20032;-74
2022/01/21 12:12:46;;;;;;;0.88;0.60;;;1.10;99.90;;;;;;5053236;28;20120;-73
2022/01/21 12:18:20;;;;;;;0.65;0.65;;;1.10;99.90;;;;;;5053128;28;20441;-74
2022/01/21 12:20:47;;;;;;;2.55;1.10;;;1.10;99.90;;;;;;5052667;28;20447;-74
2022/01/21 12:23:25;;;;;;;0.35;0.35;;;0.90;99.90;;;;;;5052704;28;20427;-74
2022/01/21 12:26:08;;;;;;;0.60;0.60;;;1.00;99.90;;;;;;5052809;28;20033;-74
2022/01/21 12:28:38;;;;;;;0.30;0.30;;;0.80;99.90;;;;;;5052898;28;20033;-74
2022/01/21 12:31:05;;;;;;;0.30;0.30;;;0.60;99.90;;;;;;5026101;28;20565;-74
2022/01/21 12:34:05;;;;;;;3.55;3.08;;;0.80;99.90;;;;;;5052795;28;20419;-74
2022/01/21 12:36:35;;;;;;;1.70;1.60;;;1.30;99.90;;;;;;5025857;28;20112;-74
2022/01/21 12:41:33;;;;;;;0.60;0.60;;;3.70;99.90;;;;;;5052427;28;20388;-74
2022/01/21 12:44:08;;;;;;;2.28;1.23;;;4.10;98.30;;;;;;5047158;28;20065;-74
2022/01/21 12:46:40;;;;;;;5.20;1.58;;;3.80;96.60;;;;;;5040366;28;20489;-74
2022/01/21 12:49:32;;;;;;;0.30;0.30;;;3.50;95.40;;;;;;5018763;28;20055;-74
2022/01/21 12:57:31;;;;;;;0.60;0.60;;;1.80;95.60;;;;;;5049989;28;20017;-74
2022/01/21 12:59:59;;;;;;;2.28;2.17;;;1.60;95.30;;;;;;5045097;28;20021;-74
2022/01/21 13:02:29;;;;;;;0.50;0.50;;;1.50;95.30;;;;;;5034098;28;20108;-74
2022/01/21 13:05:17;;;;;;;2.75;2.05;;;1.40;94.70;;;;;;5030964;28;20029;-73
2022/01/21 13:08:12;;;;;;;0.50;0.50;;;1.10;95.00;;;;;;5048235;28;20021;-74
2022/01/21 13:10:39;;;;;;;0.43;0.43;;;0.90;94.30;;;;;;5036520;28;20484;-74
2022/01/21 13:15:43;;;;;;;0.38;0.38;;;1.10;95.30;;;;;;5052982;28;20029;-74
2022/01/21 13:18:12;;;;;;;0.50;0.50;;;1.10;95.70;;;;;;5051208;28;20365;-74
2022/01/21 13:20:40;;;;;;;1.27;1.10;;;1.20;96.00;;;;;;5052630;28;20013;-74
2022/01/21 13:23:06;;;;;;;5.07;1.73;;;0.90;96.10;;;;;;5050695;28;20515;-74
2022/01/21 13:25:33;;;;;;;5.97;1.88;;;0.90;96.30;;;;;;5050814;28;20025;-73
2022/01/21 13:28:02;;;;;;;2.50;1.85;;;0.90;96.50;;;;;;5052162;28;20017;-73
2022/01/21 13:30:30;;;;;;;0.80;0.57;;;0.80;97.00;;;;;;5051707;28;20460;-70
2022/01/21 13:33:16;;;;;;;0.40;0.40;;;0.70;97.40;;;;;;5051891;28;20607;-72
2022/01/21 13:35:44;;;;;;;1.92;1.67;;;0.90;98.30;;;;;;5048682;28;20051;-73
2022/01/21 13:38:18;;;;;;;6.03;1.52;;;0.60;97.90;;;;;;5041333;28;20058;-72
2022/01/21 13:40:46;;;;;;;0.90;0.85;;;0.30;98.70;;;;;;5026528;28;20067;-72
2022/01/21 13:43:16;;;;;;;2.20;0.63;;;0.20;98.40;;;;;;5051258;28;20477;-73
2022/01/21 13:46:00;;;;;;;0.88;0.88;;;0.20;98.90;;;;;;5051553;28;20044;-73
2022/01/21 13:48:28;;;;;;;7.03;1.05;;;0.30;98.60;;;;;;5051490;28;20029;-73
2022/01/21 13:50:54;;;;;;;2.13;1.95;;;0.40;97.50;;;;;;5028846;28;20120;-73
2022/01/21 13:53:24;;;;;;;0.95;0.95;;;0.60;96.90;;;;;;5050959;28;20029;-72
2022/01/21 13:55:55;;;;;;;2.70;2.17;;;0.80;96.80;;;;;;5038761;28;20025;-73
2022/01/21 13:58:27;;;;;;;0.90;0.90;;;0.70;95.70;;;;;;5047904;28;20040;-72
2022/01/21 14:01:11;;;;;;;2.50;1.15;;;0.80;96.30;;;;;;5031100;28;20044;-73
2022/01/21 14:03:42;;;;;;;0.38;0.38;;;1.00;95.60;;;;;;5050466;28;20024;-73
2022/01/21 14:06:10;;;;;;;1.92;0.70;;;0.90;96.20;;;;;;5040408;28;20036;-73